sensor_id;sensor_type;location;lat;lon;timestamp;temperature;humidity
10512;DHT22;5304;48.604;2.096;2023-07-28T04:23:26;18.40;99.90
10512;DHT22;5304;48.604;2.096;2023-07-28T04:26:10;18.40;99.90
10512;DHT22;5304;48.604;2.096;2023-07-28T04:28:54;18.40;99.90
10512;DHT22;5304;48.604;2.096;2023-07-28T04:31:38;18.40;99.90
10512;DHT22;5304;48.604;2.096;2023-07-28T04:34:23;18.40;99.90
10512;DHT22;5304;48.604;2.096;2023-07-28T04:37:07;18.40;99.90
10512;DHT22;5304;48.604;2.096;2023-07-28T04:39:51;18.40;99.90
10512;DHT22;5304;48.604;2.096;2023-07-28T04:42:37;18.40;99.90
10512;DHT22;5304;48.604;2.096;2023-07-28T04:45:21;18.40;99.90
10512;DHT22;5304;48.604;2.096;2023-07-28T04:48:05;18.40;99.90
10512;DHT22;5304;48.604;2.096;2023-07-28T04:50:50;18.50;99.90
10512;DHT22;5304;48.604;2.096;2023-07-28T04:53:34;18.50;99.90
10512;DHT22;5304;48.604;2.096;2023-07-28T04:56:19;18.40;99.90
10512;DHT22;5304;48.604;2.096;2023-07-28T04:59:04;18.50;99.90
10512;DHT22;5304;48.604;2.096;2023-07-28T05:01:48;18.40;99.90
10512;DHT22;5304;48.604;2.096;2023-07-28T05:04:32;18.40;99.90
10512;DHT22;5304;48.604;2.096;2023-07-28T05:07:17;18.50;99.90
10512;DHT22;5304;48.604;2.096;2023-07-28T05:10:01;18.50;99.90
10512;DHT22;5304;48.604;2.096;2023-07-28T05:12:45;18.50;99.90
10512;DHT22;5304;48.604;2.096;2023-07-28T05:15:30;18.50;99.90
10512;DHT22;5304;48.604;2.096;2023-07-28T05:18:14;18.50;99.90
10512;DHT22;5304;48.604;2.096;2023-07-28T05:20:58;18.60;99.90
10512;DHT22;5304;48.604;2.096;2023-07-28T05:23:42;18.50;99.90
10512;DHT22;5304;48.604;2.096;2023-07-28T05:26:27;18.50;99.90
10512;DHT22;5304;48.604;2.096;2023-07-28T05:29:11;18.50;99.90
10512;DHT22;5304;48.604;2.096;2023-07-28T05:31:57;18.60;99.90
10512;DHT22;5304;48.604;2.096;2023-07-28T05:34:42;18.60;99.90
10512;DHT22;5304;48.604;2.096;2023-07-28T05:37:27;18.60;99.90
10512;DHT22;5304;48.604;2.096;2023-07-28T05:40:12;18.60;99.90
10512;DHT22;5304;48.604;2.096;2023-07-28T05:42:56;18.70;99.90
10512;DHT22;5304;48.604;2.096;2023-07-28T05:45:46;18.60;99.90
10512;DHT22;5304;48.604;2.096;2023-07-28T05:48:31;18.60;99.90
10512;DHT22;5304;48.604;2.096;2023-07-28T05:51:15;18.60;99.90
10512;DHT22;5304;48.604;2.096;2023-07-28T05:54:00;18.60;99.90
10512;DHT22;5304;48.604;2.096;2023-07-28T05:56:44;18.60;99.90
10512;DHT22;5304;48.604;2.096;2023-07-28T05:59:29;18.60;99.90
10512;DHT22;5304;48.604;2.096;2023-07-28T06:02:13;18.70;99.90
10512;DHT22;5304;48.604;2.096;2023-07-28T06:04:57;18.60;99.90
10512;DHT22;5304;48.604;2.096;2023-07-28T06:07:41;18.70;99.90
10512;DHT22;5304;48.604;2.096;2023-07-28T06:10:26;18.70;99.90
10512;DHT22;5304;48.604;2.096;2023-07-28T06:13:10;18.70;99.90
10512;DHT22;5304;48.604;2.096;2023-07-28T06:15:54;18.80;99.90
10512;DHT22;5304;48.604;2.096;2023-07-28T06:18:40;18.80;99.90
10512;DHT22;5304;48.604;2.096;2023-07-28T06:21:24;18.70;99.90
10512;DHT22;5304;48.604;2.096;2023-07-28T06:24:08;18.80;99.90
10512;DHT22;5304;48.604;2.096;2023-07-28T06:26:52;18.70;99.90
10512;DHT22;5304;48.604;2.096;2023-07-28T06:29:36;18.70;99.90
10512;DHT22;5304;48.604;2.096;2023-07-28T06:32:21;18.70;99.90
10512;DHT22;5304;48.604;2.096;2023-07-28T06:35:07;18.70;99.90
10512;DHT22;5304;48.604;2.096;2023-07-28T06:37:53;18.60;99.90
10512;DHT22;5304;48.604;2.096;2023-07-28T06:40:37;18.70;99.90
10512;DHT22;5304;48.604;2.096;2023-07-28T06:43:22;18.60;99.90
10512;DHT22;5304;48.604;2.096;2023-07-28T06:46:06;18.70;99.90
10512;DHT22;5304;48.604;2.096;2023-07-28T06:48:50;18.70;99.90
10512;DHT22;5304;48.604;2.096;2023-07-28T06:51:34;18.60;99.90
10512;DHT22;5304;48.604;2.096;2023-07-28T06:54:19;18.60;99.90
10512;DHT22;5304;48.604;2.096;2023-07-28T06:57:03;18.60;99.90
10512;DHT22;5304;48.604;2.096;2023-07-28T06:59:49;18.60;99.90
10512;DHT22;5304;48.604;2.096;2023-07-28T07:02:33;18.70;99.90
10512;DHT22;5304;48.604;2.096;2023-07-28T07:05:18;18.60;99.90
10512;DHT22;5304;48.604;2.096;2023-07-28T07:08:02;18.60;99.90
10512;DHT22;5304;48.604;2.096;2023-07-28T07:10:48;18.60;99.90
10512;DHT22;5304;48.604;2.096;2023-07-28T07:13:33;18.60;99.90
10512;DHT22;5304;48.604;2.096;2023-07-28T07:16:17;18.70;99.90
10512;DHT22;5304;48.604;2.096;2023-07-28T07:19:01;18.70;99.90
10512;DHT22;5304;48.604;2.096;2023-07-28T07:21:46;18.70;99.90
10512;DHT22;5304;48.604;2.096;2023-07-28T07:24:32;18.60;99.90
10512;DHT22;5304;48.604;2.096;2023-07-28T07:27:16;18.70;99.90
10512;DHT22;5304;48.604;2.096;2023-07-28T07:30:01;18.70;99.90
10512;DHT22;5304;48.604;2.096;2023-07-28T07:32:45;18.70;99.90
10512;DHT22;5304;48.604;2.096;2023-07-28T07:35:29;18.60;99.90
10512;DHT22;5304;48.604;2.096;2023-07-28T07:38:14;18.70;99.90
10512;DHT22;5304;48.604;2.096;2023-07-28T07:40:58;18.70;99.90
10512;DHT22;5304;48.604;2.096;2023-07-28T07:43:42;18.80;99.90
10512;DHT22;5304;48.604;2.096;2023-07-28T07:46:26;18.80;99.90
10512;DHT22;5304;48.604;2.096;2023-07-28T07:49:11;18.80;99.90
10512;DHT22;5304;48.604;2.096;2023-07-28T07:51:55;19.00;99.90
10512;DHT22;5304;48.604;2.096;2023-07-28T07:54:39;19.00;99.90
10512;DHT22;5304;48.604;2.096;2023-07-28T07:57:23;19.00;99.90
10512;DHT22;5304;48.604;2.096;2023-07-28T08:00:08;19.00;99.90
10512;DHT22;5304;48.604;2.096;2023-07-28T08:02:52;19.00;99.90
10512;DHT22;5304;48.604;2.096;2023-07-28T08:05:37;19.00;99.90
10512;DHT22;5304;48.604;2.096;2023-07-28T08:08:21;19.10;99.90
10512;DHT22;5304;48.604;2.096;2023-07-28T08:11:05;19.10;99.90
10512;DHT22;5304;48.604;2.096;2023-07-28T08:13:52;19.10;99.90
10512;DHT22;5304;48.604;2.096;2023-07-28T08:16:36;19.10;99.90
10512;DHT22;5304;48.604;2.096;2023-07-28T08:19:20;19.10;99.90
10512;DHT22;5304;48.604;2.096;2023-07-28T08:22:04;19.20;99.90
10512;DHT22;5304;48.604;2.096;2023-07-28T08:24:49;19.20;99.90
10512;DHT22;5304;48.604;2.096;2023-07-28T08:27:33;19.30;99.90
10512;DHT22;5304;48.604;2.096;2023-07-28T08:30:18;19.30;99.90
10512;DHT22;5304;48.604;2.096;2023-07-28T08:33:02;19.40;99.90
10512;DHT22;5304;48.604;2.096;2023-07-28T08:35:47;19.40;99.90
10512;DHT22;5304;48.604;2.096;2023-07-28T08:38:31;19.40;99.90
10512;DHT22;5304;48.604;2.096;2023-07-28T08:41:16;19.30;99.90
10512;DHT22;5304;48.604;2.096;2023-07-28T08:44:02;19.40;99.90
10512;DHT22;5304;48.604;2.096;2023-07-28T08:46:46;19.50;99.90
10512;DHT22;5304;48.604;2.096;2023-07-28T08:49:31;19.50;99.90
10512;DHT22;5304;48.604;2.096;2023-07-28T08:52:17;19.50;99.90
10512;DHT22;5304;48.604;2.096;2023-07-28T08:55:01;19.60;99.90
10512;DHT22;5304;48.604;2.096;2023-07-28T08:57:46;19.60;99.90
10512;DHT22;5304;48.604;2.096;2023-07-28T09:00:31;19.60;99.90
10512;DHT22;5304;48.604;2.096;2023-07-28T09:03:17;19.80;99.90
10512;DHT22;5304;48.604;2.096;2023-07-28T09:06:02;19.80;99.90
10512;DHT22;5304;48.604;2.096;2023-07-28T09:08:47;19.70;99.90
10512;DHT22;5304;48.604;2.096;2023-07-28T09:11:31;19.70;99.90
10512;DHT22;5304;48.604;2.096;2023-07-28T09:14:16;19.70;99.90
10512;DHT22;5304;48.604;2.096;2023-07-28T09:17:11;19.80;99.90
10512;DHT22;5304;48.604;2.096;2023-07-28T09:19:57;19.80;99.90
10512;DHT22;5304;48.604;2.096;2023-07-28T09:22:44;19.80;99.90
10512;DHT22;5304;48.604;2.096;2023-07-28T09:25:29;19.80;99.90
10512;DHT22;5304;48.604;2.096;2023-07-28T09:28:17;19.90;99.90
10512;DHT22;5304;48.604;2.096;2023-07-28T09:31:04;20.00;99.90
10512;DHT22;5304;48.604;2.096;2023-07-28T09:33:48;20.10;99.90
10512;DHT22;5304;48.604;2.096;2023-07-28T09:36:33;20.30;99.90
10512;DHT22;5304;48.604;2.096;2023-07-28T09:39:17;20.50;99.90
10512;DHT22;5304;48.604;2.096;2023-07-28T09:42:02;20.60;99.90
10512;DHT22;5304;48.604;2.096;2023-07-28T09:44:47;20.60;99.90
10512;DHT22;5304;48.604;2.096;2023-07-28T09:47:37;20.50;99.90
10512;DHT22;5304;48.604;2.096;2023-07-28T09:50:23;20.50;99.90
10512;DHT22;5304;48.604;2.096;2023-07-28T09:53:09;20.60;99.90
10512;DHT22;5304;48.604;2.096;2023-07-28T09:55:55;20.70;99.90
10512;DHT22;5304;48.604;2.096;2023-07-28T09:58:51;20.70;99.90
10512;DHT22;5304;48.604;2.096;2023-07-28T10:01:35;20.80;99.90
10512;DHT22;5304;48.604;2.096;2023-07-28T10:04:20;20.90;99.90
10512;DHT22;5304;48.604;2.096;2023-07-28T10:07:07;21.00;99.90
10512;DHT22;5304;48.604;2.096;2023-07-28T10:09:51;20.90;99.90
10512;DHT22;5304;48.604;2.096;2023-07-28T10:12:46;21.10;99.90
10512;DHT22;5304;48.604;2.096;2023-07-28T10:15:32;21.30;99.90
10512;DHT22;5304;48.604;2.096;2023-07-28T10:18:20;21.60;99.90
10512;DHT22;5304;48.604;2.096;2023-07-28T10:21:07;22.10;99.90
10512;DHT22;5304;48.604;2.096;2023-07-28T10:23:56;22.60;99.90
10512;DHT22;5304;48.604;2.096;2023-07-28T10:26:41;23.00;99.90
10512;DHT22;5304;48.604;2.096;2023-07-28T10:29:25;23.10;99.90
10512;DHT22;5304;48.604;2.096;2023-07-28T10:32:25;23.40;99.90
10512;DHT22;5304;48.604;2.096;2023-07-28T10:35:23;23.30;99.90
10512;DHT22;5304;48.604;2.096;2023-07-28T10:38:28;23.20;99.90
10512;DHT22;5304;48.604;2.096;2023-07-28T10:41:16;23.10;99.90
10512;DHT22;5304;48.604;2.096;2023-07-28T10:44:01;23.10;99.90
10512;DHT22;5304;48.604;2.096;2023-07-28T10:46:46;23.30;99.90
10512;DHT22;5304;48.604;2.096;2023-07-28T10:49:32;23.30;99.90
10512;DHT22;5304;48.604;2.096;2023-07-28T10:52:17;23.30;99.90
10512;DHT22;5304;48.604;2.096;2023-07-28T10:55:02;23.40;99.90
10512;DHT22;5304;48.604;2.096;2023-07-28T10:57:47;23.30;99.90
10512;DHT22;5304;48.604;2.096;2023-07-28T11:00:31;23.10;99.90
10512;DHT22;5304;48.604;2.096;2023-07-28T11:03:15;23.00;99.90
10512;DHT22;5304;48.604;2.096;2023-07-28T11:06:00;22.90;99.90
10512;DHT22;5304;48.604;2.096;2023-07-28T11:08:44;22.70;99.90
10512;DHT22;5304;48.604;2.096;2023-07-28T11:11:28;22.50;99.90
10512;DHT22;5304;48.604;2.096;2023-07-28T11:14:15;22.40;99.90
10512;DHT22;5304;48.604;2.096;2023-07-28T11:16:59;22.30;99.90
10512;DHT22;5304;48.604;2.096;2023-07-28T11:19:44;22.20;99.90
10512;DHT22;5304;48.604;2.096;2023-07-28T11:22:28;22.10;99.90
10512;DHT22;5304;48.604;2.096;2023-07-28T11:25:13;22.30;99.90
10512;DHT22;5304;48.604;2.096;2023-07-28T11:27:58;22.60;99.90
10512;DHT22;5304;48.604;2.096;2023-07-28T11:30:46;22.70;99.90
10512;DHT22;5304;48.604;2.096;2023-07-28T11:33:31;22.70;99.90
10512;DHT22;5304;48.604;2.096;2023-07-28T11:36:31;22.70;99.90
10512;DHT22;5304;48.604;2.096;2023-07-28T11:39:16;22.70;99.90
10512;DHT22;5304;48.604;2.096;2023-07-28T11:42:02;22.80;99.90
10512;DHT22;5304;48.604;2.096;2023-07-28T11:44:46;22.60;99.90
10512;DHT22;5304;48.604;2.096;2023-07-28T11:47:31;22.40;99.90
10512;DHT22;5304;48.604;2.096;2023-07-28T11:50:25;22.60;99.90
10512;DHT22;5304;48.604;2.096;2023-07-28T11:53:10;23.10;99.90
10512;DHT22;5304;48.604;2.096;2023-07-28T11:55:55;23.50;99.90
10512;DHT22;5304;48.604;2.096;2023-07-28T11:58:40;23.70;99.90
10512;DHT22;5304;48.604;2.096;2023-07-28T12:01:25;23.90;99.90
10512;DHT22;5304;48.604;2.096;2023-07-28T12:04:26;24.00;99.90
10512;DHT22;5304;48.604;2.096;2023-07-28T12:07:15;24.40;99.90
10512;DHT22;5304;48.604;2.096;2023-07-28T12:10:04;24.70;99.90
10512;DHT22;5304;48.604;2.096;2023-07-28T12:12:50;25.00;99.90
10512;DHT22;5304;48.604;2.096;2023-07-28T12:15:39;24.80;99.90
10512;DHT22;5304;48.604;2.096;2023-07-28T12:18:29;24.50;99.90
10512;DHT22;5304;48.604;2.096;2023-07-28T12:21:14;24.30;99.90
10512;DHT22;5304;48.604;2.096;2023-07-28T12:23:58;24.20;99.90
10512;DHT22;5304;48.604;2.096;2023-07-28T12:26:42;24.10;99.90
10512;DHT22;5304;48.604;2.096;2023-07-28T12:29:27;24.00;99.90
10512;DHT22;5304;48.604;2.096;2023-07-28T12:32:11;23.90;99.90
10512;DHT22;5304;48.604;2.096;2023-07-28T12:34:55;23.80;99.90
10512;DHT22;5304;48.604;2.096;2023-07-28T12:37:39;23.90;99.90
10512;DHT22;5304;48.604;2.096;2023-07-28T12:40:24;24.10;99.90
10512;DHT22;5304;48.604;2.096;2023-07-28T12:43:08;24.10;99.90
10512;DHT22;5304;48.604;2.096;2023-07-28T12:45:52;24.00;99.90
10512;DHT22;5304;48.604;2.096;2023-07-28T12:48:40;23.70;99.90
10512;DHT22;5304;48.604;2.096;2023-07-28T12:51:25;23.40;99.90
10512;DHT22;5304;48.604;2.096;2023-07-28T12:54:09;23.10;99.90
10512;DHT22;5304;48.604;2.096;2023-07-28T12:56:56;22.90;99.90
10512;DHT22;5304;48.604;2.096;2023-07-28T12:59:40;22.60;99.90
10512;DHT22;5304;48.604;2.096;2023-07-28T13:02:25;22.60;99.90
10512;DHT22;5304;48.604;2.096;2023-07-28T13:05:10;22.70;99.90
10512;DHT22;5304;48.604;2.096;2023-07-28T13:07:55;22.90;99.90
10512;DHT22;5304;48.604;2.096;2023-07-28T13:10:39;22.90;99.90
10512;DHT22;5304;48.604;2.096;2023-07-28T13:13:24;22.90;99.90
10512;DHT22;5304;48.604;2.096;2023-07-28T13:16:08;22.80;99.90
10512;DHT22;5304;48.604;2.096;2023-07-28T13:18:53;22.80;99.90
10512;DHT22;5304;48.604;2.096;2023-07-28T13:21:37;22.60;99.90
10512;DHT22;5304;48.604;2.096;2023-07-28T13:24:21;22.60;99.90
10512;DHT22;5304;48.604;2.096;2023-07-28T13:27:06;22.70;99.90
10512;DHT22;5304;48.604;2.096;2023-07-28T13:29:50;22.90;99.90
10512;DHT22;5304;48.604;2.096;2023-07-28T13:32:34;23.00;99.90
10512;DHT22;5304;48.604;2.096;2023-07-28T13:35:19;23.10;99.90
10512;DHT22;5304;48.604;2.096;2023-07-28T13:38:03;23.00;99.90
10512;DHT22;5304;48.604;2.096;2023-07-28T13:40:47;23.10;99.90
10512;DHT22;5304;48.604;2.096;2023-07-28T13:43:34;23.10;99.90
10512;DHT22;5304;48.604;2.096;2023-07-28T13:46:21;23.00;99.90
10512;DHT22;5304;48.604;2.096;2023-07-28T13:49:05;22.90;99.90
10512;DHT22;5304;48.604;2.096;2023-07-28T13:51:50;22.80;99.90
10512;DHT22;5304;48.604;2.096;2023-07-28T13:54:34;22.70;99.90
10512;DHT22;5304;48.604;2.096;2023-07-28T13:57:19;22.70;99.90
10512;DHT22;5304;48.604;2.096;2023-07-28T14:00:03;22.60;99.90
10512;DHT22;5304;48.604;2.096;2023-07-28T14:02:50;22.60;99.90
10512;DHT22;5304;48.604;2.096;2023-07-28T14:05:34;22.40;99.90
10512;DHT22;5304;48.604;2.096;2023-07-28T14:08:19;22.30;99.90
10512;DHT22;5304;48.604;2.096;2023-07-28T14:11:03;22.30;99.90
10512;DHT22;5304;48.604;2.096;2023-07-28T14:13:47;22.00;99.90
10512;DHT22;5304;48.604;2.096;2023-07-28T14:16:31;21.90;99.90
10512;DHT22;5304;48.604;2.096;2023-07-28T14:19:16;21.90;99.90
10512;DHT22;5304;48.604;2.096;2023-07-28T14:22:02;21.90;99.90
10512;DHT22;5304;48.604;2.096;2023-07-28T14:24:46;21.70;99.90
10512;DHT22;5304;48.604;2.096;2023-07-28T14:27:30;21.70;99.90
10512;DHT22;5304;48.604;2.096;2023-07-28T14:30:14;21.70;99.90
10512;DHT22;5304;48.604;2.096;2023-07-28T14:32:59;21.80;99.90
10512;DHT22;5304;48.604;2.096;2023-07-28T14:35:47;22.00;99.90
10512;DHT22;5304;48.604;2.096;2023-07-28T14:38:31;22.20;99.90
10512;DHT22;5304;48.604;2.096;2023-07-28T14:41:16;22.40;99.90
10512;DHT22;5304;48.604;2.096;2023-07-28T14:44:00;22.50;99.90
10512;DHT22;5304;48.604;2.096;2023-07-28T14:46:45;22.80;99.90
10512;DHT22;5304;48.604;2.096;2023-07-28T14:49:30;22.90;99.90
10512;DHT22;5304;48.604;2.096;2023-07-28T14:52:14;23.20;99.90
10512;DHT22;5304;48.604;2.096;2023-07-28T14:54:58;23.40;99.90
10512;DHT22;5304;48.604;2.096;2023-07-28T14:57:43;23.80;99.90
10512;DHT22;5304;48.604;2.096;2023-07-28T15:00:27;23.90;99.90
10512;DHT22;5304;48.604;2.096;2023-07-28T15:03:12;24.00;99.90
10512;DHT22;5304;48.604;2.096;2023-07-28T15:05:56;24.00;99.90
10512;DHT22;5304;48.604;2.096;2023-07-28T15:08:41;24.10;99.90
10512;DHT22;5304;48.604;2.096;2023-07-28T15:11:26;24.00;99.90
10512;DHT22;5304;48.604;2.096;2023-07-28T15:14:10;23.90;99.90
10512;DHT22;5304;48.604;2.096;2023-07-28T15:16:55;24.00;99.90
10512;DHT22;5304;48.604;2.096;2023-07-28T15:19:40;24.00;99.90
10512;DHT22;5304;48.604;2.096;2023-07-28T15:22:24;24.20;99.90
10512;DHT22;5304;48.604;2.096;2023-07-28T15:25:08;24.40;99.90
10512;DHT22;5304;48.604;2.096;2023-07-28T15:27:53;24.50;99.90
10512;DHT22;5304;48.604;2.096;2023-07-28T15:30:37;24.50;99.90
10512;DHT22;5304;48.604;2.096;2023-07-28T15:33:22;24.60;99.90
10512;DHT22;5304;48.604;2.096;2023-07-28T15:36:15;24.60;99.90
10512;DHT22;5304;48.604;2.096;2023-07-28T15:38:59;24.60;99.90
10512;DHT22;5304;48.604;2.096;2023-07-28T15:41:44;24.60;99.90
10512;DHT22;5304;48.604;2.096;2023-07-28T15:44:28;24.70;99.90
10512;DHT22;5304;48.604;2.096;2023-07-28T15:47:12;24.70;99.90
10512;DHT22;5304;48.604;2.096;2023-07-28T15:49:57;24.70;99.90
10512;DHT22;5304;48.604;2.096;2023-07-28T15:52:41;24.70;99.90
10512;DHT22;5304;48.604;2.096;2023-07-28T15:55:25;24.70;99.90
10512;DHT22;5304;48.604;2.096;2023-07-28T15:58:10;24.50;99.90
10512;DHT22;5304;48.604;2.096;2023-07-28T16:00:54;24.30;99.90
10512;DHT22;5304;48.604;2.096;2023-07-28T16:03:39;24.30;99.90
10512;DHT22;5304;48.604;2.096;2023-07-28T16:06:23;24.40;99.90
10512;DHT22;5304;48.604;2.096;2023-07-28T16:09:07;24.50;99.90
10512;DHT22;5304;48.604;2.096;2023-07-28T16:11:51;24.50;99.90
10512;DHT22;5304;48.604;2.096;2023-07-28T16:14:36;24.40;99.90
10512;DHT22;5304;48.604;2.096;2023-07-28T16:17:22;24.40;99.90
10512;DHT22;5304;48.604;2.096;2023-07-28T16:20:07;24.30;99.90
10512;DHT22;5304;48.604;2.096;2023-07-28T16:22:51;24.20;99.90
10512;DHT22;5304;48.604;2.096;2023-07-28T16:25:36;24.10;99.90
10512;DHT22;5304;48.604;2.096;2023-07-28T16:28:20;24.20;99.90
10512;DHT22;5304;48.604;2.096;2023-07-28T16:31:04;24.30;99.90
10512;DHT22;5304;48.604;2.096;2023-07-28T16:33:48;24.50;99.90
10512;DHT22;5304;48.604;2.096;2023-07-28T16:36:32;24.40;99.90
10512;DHT22;5304;48.604;2.096;2023-07-28T16:39:17;24.50;99.90
10512;DHT22;5304;48.604;2.096;2023-07-28T16:42:02;24.50;99.90
10512;DHT22;5304;48.604;2.096;2023-07-28T16:44:47;24.50;99.90
10512;DHT22;5304;48.604;2.096;2023-07-28T16:47:32;24.40;99.90
10512;DHT22;5304;48.604;2.096;2023-07-28T16:50:20;24.30;99.90
10512;DHT22;5304;48.604;2.096;2023-07-28T16:53:05;24.20;99.90
10512;DHT22;5304;48.604;2.096;2023-07-28T16:55:49;24.00;99.90
10512;DHT22;5304;48.604;2.096;2023-07-28T16:58:33;23.90;99.90
10512;DHT22;5304;48.604;2.096;2023-07-28T17:01:17;23.80;99.90
10512;DHT22;5304;48.604;2.096;2023-07-28T17:04:04;23.70;99.90
10512;DHT22;5304;48.604;2.096;2023-07-28T17:06:48;23.60;99.90
10512;DHT22;5304;48.604;2.096;2023-07-28T17:09:32;23.50;99.90
10512;DHT22;5304;48.604;2.096;2023-07-28T17:12:17;23.40;99.90
10512;DHT22;5304;48.604;2.096;2023-07-28T17:15:02;23.30;99.90
10512;DHT22;5304;48.604;2.096;2023-07-28T17:17:46;23.40;99.90
10512;DHT22;5304;48.604;2.096;2023-07-28T17:20:31;23.40;99.90
10512;DHT22;5304;48.604;2.096;2023-07-28T17:23:15;23.40;99.90
10512;DHT22;5304;48.604;2.096;2023-07-28T17:25:59;23.50;99.90
10512;DHT22;5304;48.604;2.096;2023-07-28T17:28:45;23.60;99.90
10512;DHT22;5304;48.604;2.096;2023-07-28T17:31:30;23.50;99.90
10512;DHT22;5304;48.604;2.096;2023-07-28T17:34:15;23.60;99.90
10512;DHT22;5304;48.604;2.096;2023-07-28T17:36:59;23.60;99.90
10512;DHT22;5304;48.604;2.096;2023-07-28T17:39:44;23.70;99.90
10512;DHT22;5304;48.604;2.096;2023-07-28T17:42:28;23.70;99.90
10512;DHT22;5304;48.604;2.096;2023-07-28T17:45:13;23.60;99.90
10512;DHT22;5304;48.604;2.096;2023-07-28T17:47:58;23.80;99.90
10512;DHT22;5304;48.604;2.096;2023-07-28T17:50:42;23.80;99.90
10512;DHT22;5304;48.604;2.096;2023-07-28T17:53:26;23.70;99.90
10512;DHT22;5304;48.604;2.096;2023-07-28T17:56:12;23.60;99.90
10512;DHT22;5304;48.604;2.096;2023-07-28T17:58:57;23.70;99.90
10512;DHT22;5304;48.604;2.096;2023-07-28T18:01:41;23.70;99.90
10512;DHT22;5304;48.604;2.096;2023-07-28T18:04:26;23.60;99.90
10512;DHT22;5304;48.604;2.096;2023-07-28T18:07:10;23.60;99.90
10512;DHT22;5304;48.604;2.096;2023-07-28T18:09:55;23.50;99.90
10512;DHT22;5304;48.604;2.096;2023-07-28T18:12:39;23.50;99.90
10512;DHT22;5304;48.604;2.096;2023-07-28T18:15:23;23.40;99.90
10512;DHT22;5304;48.604;2.096;2023-07-28T18:18:08;23.40;99.90
10512;DHT22;5304;48.604;2.096;2023-07-28T18:20:52;23.40;99.90
10512;DHT22;5304;48.604;2.096;2023-07-28T18:23:36;23.30;99.90
10512;DHT22;5304;48.604;2.096;2023-07-28T18:26:20;23.30;99.90
10512;DHT22;5304;48.604;2.096;2023-07-28T18:29:04;23.30;99.90
10512;DHT22;5304;48.604;2.096;2023-07-28T18:31:49;23.20;99.90
10512;DHT22;5304;48.604;2.096;2023-07-28T18:34:33;23.20;99.90
10512;DHT22;5304;48.604;2.096;2023-07-28T18:37:17;23.20;99.90
10512;DHT22;5304;48.604;2.096;2023-07-28T18:40:01;23.10;99.90
10512;DHT22;5304;48.604;2.096;2023-07-28T18:42:46;23.10;99.90
10512;DHT22;5304;48.604;2.096;2023-07-28T18:45:30;23.10;99.90
10512;DHT22;5304;48.604;2.096;2023-07-28T18:48:15;23.10;99.90
10512;DHT22;5304;48.604;2.096;2023-07-28T18:51:04;23.00;99.90
10512;DHT22;5304;48.604;2.096;2023-07-28T18:53:48;22.80;99.90
10512;DHT22;5304;48.604;2.096;2023-07-28T18:56:34;22.70;99.90
10512;DHT22;5304;48.604;2.096;2023-07-28T18:59:19;22.80;99.90
10512;DHT22;5304;48.604;2.096;2023-07-28T19:02:03;22.70;99.90
10512;DHT22;5304;48.604;2.096;2023-07-28T19:04:49;22.60;99.90
10512;DHT22;5304;48.604;2.096;2023-07-28T19:07:33;22.60;99.90
10512;DHT22;5304;48.604;2.096;2023-07-28T19:10:18;22.50;99.90
10512;DHT22;5304;48.604;2.096;2023-07-28T19:13:02;22.50;99.90
10512;DHT22;5304;48.604;2.096;2023-07-28T19:15:47;22.40;99.90
10512;DHT22;5304;48.604;2.096;2023-07-28T19:18:31;22.40;99.90
10512;DHT22;5304;48.604;2.096;2023-07-28T19:21:16;22.30;99.90
10512;DHT22;5304;48.604;2.096;2023-07-28T19:24:00;22.30;99.90
10512;DHT22;5304;48.604;2.096;2023-07-28T19:26:44;22.20;99.90
10512;DHT22;5304;48.604;2.096;2023-07-28T19:29:29;22.10;99.90
10512;DHT22;5304;48.604;2.096;2023-07-28T19:32:13;22.00;99.90
10512;DHT22;5304;48.604;2.096;2023-07-28T19:34:58;22.10;99.90
10512;DHT22;5304;48.604;2.096;2023-07-28T19:37:42;22.00;99.90
10512;DHT22;5304;48.604;2.096;2023-07-28T19:40:28;21.90;99.90
10512;DHT22;5304;48.604;2.096;2023-07-28T19:43:12;21.90;99.90
10512;DHT22;5304;48.604;2.096;2023-07-28T19:45:57;21.80;99.90
10512;DHT22;5304;48.604;2.096;2023-07-28T19:48:41;21.70;99.90
10512;DHT22;5304;48.604;2.096;2023-07-28T19:51:25;21.60;99.90
10512;DHT22;5304;48.604;2.096;2023-07-28T19:54:09;21.50;99.90
10512;DHT22;5304;48.604;2.096;2023-07-28T19:56:54;21.50;99.90
10512;DHT22;5304;48.604;2.096;2023-07-28T19:59:38;21.40;99.90
10512;DHT22;5304;48.604;2.096;2023-07-28T20:02:22;21.40;99.90
10512;DHT22;5304;48.604;2.096;2023-07-28T20:05:07;21.40;99.90
10512;DHT22;5304;48.604;2.096;2023-07-28T20:07:51;21.40;99.90
10512;DHT22;5304;48.604;2.096;2023-07-28T20:10:35;21.30;99.90
10512;DHT22;5304;48.604;2.096;2023-07-28T20:13:20;21.30;99.90
10512;DHT22;5304;48.604;2.096;2023-07-28T20:16:04;21.30;99.90
10512;DHT22;5304;48.604;2.096;2023-07-28T20:18:49;21.20;99.90
10512;DHT22;5304;48.604;2.096;2023-07-28T20:21:34;21.20;99.90
10512;DHT22;5304;48.604;2.096;2023-07-28T20:24:18;21.20;99.90
10512;DHT22;5304;48.604;2.096;2023-07-28T20:27:04;21.20;99.90
10512;DHT22;5304;48.604;2.096;2023-07-28T20:29:50;21.20;99.90
10512;DHT22;5304;48.604;2.096;2023-07-28T20:32:34;21.20;99.90
10512;DHT22;5304;48.604;2.096;2023-07-28T20:35:19;21.10;99.90
10512;DHT22;5304;48.604;2.096;2023-07-28T20:38:03;21.10;99.90
10512;DHT22;5304;48.604;2.096;2023-07-28T20:40:47;21.20;99.90
10512;DHT22;5304;48.604;2.096;2023-07-28T20:43:31;21.20;99.90
10512;DHT22;5304;48.604;2.096;2023-07-28T20:46:16;21.20;99.90
